createdAt,value
2023-02-04T00:00:46.333Z,99547.31
2023-02-04T00:03:15.281Z,99549.44
2023-02-04T00:05:44.363Z,99560.72
2023-02-04T00:08:12.990Z,99551.84
2023-02-04T00:10:41.562Z,99576.53
2023-02-04T00:13:09.982Z,99573.94
2023-02-04T00:15:39.928Z,99589.81
2023-02-04T00:18:09.782Z,99579.13
2023-02-04T00:20:38.484Z,99581.03
2023-02-04T00:23:06.957Z,99584.78
2023-02-04T00:25:35.688Z,99585.72
2023-02-04T00:28:04.394Z,99583.81
2023-02-04T00:30:33.201Z,99607.53
2023-02-04T00:33:03.269Z,99606.22
2023-02-04T00:35:32.211Z,99606.94
2023-02-04T00:38:00.946Z,99631.47
2023-02-04T00:40:29.808Z,99629.09
2023-02-04T00:42:58.383Z,99624.34
2023-02-04T00:45:27.430Z,99656.25
2023-02-04T00:47:57.367Z,99664.25
2023-02-04T00:50:27.671Z,99648.19
2023-02-04T00:52:56.581Z,99670.09
2023-02-04T00:55:25.123Z,99677.72
2023-02-04T00:57:54.078Z,99673.91
2023-02-04T01:00:22.976Z,99679.38
2023-02-04T01:02:51.923Z,99684.84
2023-02-04T01:05:20.743Z,99686.97
2023-02-04T01:07:51.170Z,99699.34
2023-02-04T01:10:20.731Z,99694.81
2023-02-04T01:12:49.635Z,99707.84
2023-02-04T01:15:18.492Z,99712.25
2023-02-04T01:17:47.229Z,99720.66
2023-02-04T01:20:16.287Z,99718.97
2023-02-04T01:22:44.702Z,99730.13
2023-02-04T01:25:14.740Z,99732.00
2023-02-04T01:27:43.313Z,99714.16
2023-02-04T01:30:14.170Z,99734.84
2023-02-04T01:32:42.830Z,99759.25
2023-02-04T01:35:11.745Z,99761.13
2023-02-04T01:37:40.847Z,99770.97
2023-02-04T01:40:10.942Z,99774.75
2023-02-04T01:42:41.583Z,99785.16
2023-02-04T01:45:11.897Z,99823.19
2023-02-04T01:47:41.436Z,99825.50
2023-02-04T01:50:14.656Z,99869.41
2023-02-04T01:52:44.715Z,99879.84
2023-02-04T01:55:17.601Z,99907.22
2023-02-04T01:57:48.308Z,99924.84
2023-02-04T02:00:21.271Z,99948.00
2023-02-04T02:02:51.620Z,99961.66
2023-02-04T02:05:23.839Z,99984.91
2023-02-04T02:07:54.713Z,99984.75
2023-02-04T02:10:23.812Z,100010.84
2023-02-04T02:12:55.129Z,100019.59
2023-02-04T02:15:25.074Z,100061.34
2023-02-04T02:17:54.691Z,100050.91
2023-02-04T02:20:25.795Z,100067.38
2023-02-04T02:23:04.205Z,100086.50
2023-02-04T02:25:35.180Z,100120.13
2023-02-04T02:28:07.072Z,100126.34
2023-02-04T02:30:35.972Z,100136.41
2023-02-04T02:33:06.543Z,100152.44
2023-02-04T02:35:35.661Z,100174.91
2023-02-04T02:38:04.232Z,100191.56
2023-02-04T02:40:34.609Z,100215.78
2023-02-04T02:43:03.383Z,100205.88
2023-02-04T02:45:34.305Z,100239.59
2023-02-04T02:48:04.569Z,100256.19
2023-02-04T02:50:34.854Z,100266.91
2023-02-04T02:53:04.455Z,100272.94
2023-02-04T02:55:34.474Z,100288.69
2023-02-04T02:58:03.658Z,100321.66
2023-02-04T03:00:32.804Z,100315.53
2023-02-04T03:03:06.557Z,100342.25
2023-02-04T03:05:41.434Z,100360.50
2023-02-04T03:08:10.617Z,100369.34
2023-02-04T03:10:42.745Z,100390.28
2023-02-04T03:13:12.875Z,100405.88
2023-02-04T03:15:42.593Z,100424.19
2023-02-04T03:18:11.641Z,100440.59
2023-02-04T03:20:41.239Z,100441.44
2023-02-04T03:23:09.756Z,100462.47
2023-02-04T03:25:38.387Z,100457.19
2023-02-04T03:28:08.361Z,100491.94
2023-02-04T03:30:37.079Z,100502.75
2023-02-04T03:33:06.171Z,100532.47
2023-02-04T03:35:34.846Z,100544.97
2023-02-04T03:38:03.210Z,100543.28
2023-02-04T03:40:31.913Z,100565.06
2023-02-04T03:43:00.648Z,100589.22
2023-02-04T03:45:40.558Z,100607.69
2023-02-04T03:48:09.495Z,100616.69
2023-02-04T03:50:38.114Z,100640.97
2023-02-04T03:53:06.767Z,100650.66
2023-02-04T03:55:36.190Z,100658.88
2023-02-04T03:58:05.068Z,100687.28
2023-02-04T04:00:35.005Z,100683.91
2023-02-04T04:03:05.391Z,100690.97
2023-02-04T04:05:34.718Z,100707.47
2023-02-04T04:08:03.255Z,100721.44
2023-02-04T04:10:34.810Z,100730.06
2023-02-04T04:13:03.515Z,100736.34
2023-02-04T04:15:34.954Z,100751.16
2023-02-04T04:18:04.863Z,100753.69
2023-02-04T04:20:33.615Z,100771.16
2023-02-04T04:23:03.018Z,100773.00
2023-02-04T04:25:32.019Z,100786.13
2023-02-04T04:28:00.585Z,100776.00
2023-02-04T04:30:29.101Z,100805.19
2023-02-04T04:32:58.998Z,100788.72
2023-02-04T04:35:27.547Z,100817.16
2023-02-04T04:37:56.178Z,100833.03
2023-02-04T04:40:24.610Z,100836.47
2023-02-04T04:42:53.267Z,100858.25
2023-02-04T04:45:22.724Z,100867.06
2023-02-04T04:47:51.174Z,100874.78
2023-02-04T04:50:21.571Z,100885.44
2023-02-04T04:52:49.962Z,100890.56
2023-02-04T04:55:18.875Z,100897.56
2023-02-04T04:57:47.888Z,100891.91
2023-02-04T05:00:19.139Z,100918.28
2023-02-04T05:02:47.791Z,100922.75
2023-02-04T05:05:17.069Z,100936.16
2023-02-04T05:07:47.754Z,100948.50
2023-02-04T05:10:16.941Z,100947.13
2023-02-04T05:12:45.608Z,100957.69
2023-02-04T05:15:14.525Z,100967.72
2023-02-04T05:17:43.248Z,100980.09
2023-02-04T05:20:12.412Z,100982.34
2023-02-04T05:22:40.909Z,101016.72
2023-02-04T05:25:11.050Z,101021.94
2023-02-04T05:27:39.767Z,101035.09
2023-02-04T05:30:08.995Z,101041.16
2023-02-04T05:32:37.464Z,101047.34
2023-02-04T05:35:07.180Z,101058.56
2023-02-04T05:37:35.740Z,101068.28
2023-02-04T05:40:04.643Z,101072.50
2023-02-04T05:42:35.028Z,101081.09
2023-02-04T05:45:03.445Z,101085.53
2023-02-04T05:47:32.330Z,101082.66
2023-02-04T05:50:00.751Z,101095.69
2023-02-04T05:52:29.905Z,101114.59
2023-02-04T05:54:58.413Z,101118.88
2023-02-04T05:57:27.091Z,101119.78
2023-02-04T05:59:57.359Z,101122.66
2023-02-04T06:02:25.851Z,101137.25
2023-02-04T06:04:54.516Z,101141.91
2023-02-04T06:07:23.197Z,101148.19
2023-02-04T06:09:52.092Z,101152.25
2023-02-04T06:12:21.095Z,101172.38
2023-02-04T06:14:49.485Z,101170.63
2023-02-04T06:17:19.399Z,101195.63
2023-02-04T06:19:47.830Z,101194.72
2023-02-04T06:22:16.260Z,101207.75
2023-02-04T06:24:46.668Z,101203.28
2023-02-04T06:27:19.113Z,101217.94
2023-02-04T06:29:47.638Z,101228.25
2023-02-04T06:32:16.453Z,101235.16
2023-02-04T06:34:47.175Z,101244.19
2023-02-04T06:37:17.713Z,101255.56
2023-02-04T06:39:46.595Z,101259.09
2023-02-04T06:42:15.007Z,101267.78
2023-02-04T06:44:43.781Z,101281.59
2023-02-04T06:47:12.178Z,101291.25
2023-02-04T06:49:40.874Z,101299.75
2023-02-04T06:52:11.865Z,101315.38
2023-02-04T06:54:40.290Z,101329.41
2023-02-04T06:57:08.730Z,101336.53
2023-02-04T06:59:38.054Z,101338.50
2023-02-04T07:02:09.227Z,101355.00
2023-02-04T07:04:38.053Z,101359.34
2023-02-04T07:07:09.570Z,101363.84
2023-02-04T07:09:40.824Z,101351.72
2023-02-04T07:12:09.445Z,101385.47
2023-02-04T07:14:38.089Z,101382.28
2023-02-04T07:17:06.496Z,101404.59
2023-02-04T07:19:36.490Z,101409.13
2023-02-04T07:22:05.686Z,101419.38
2023-02-04T07:24:34.749Z,101427.16
2023-02-04T07:27:05.373Z,101422.88
2023-02-04T07:29:34.043Z,101427.94
2023-02-04T07:32:03.500Z,101437.59
2023-02-04T07:34:32.661Z,101443.69
2023-02-04T07:37:01.229Z,101444.72
2023-02-04T07:39:29.916Z,101450.91
2023-02-04T07:41:58.545Z,101455.03
2023-02-04T07:44:28.426Z,101462.72
2023-02-04T07:46:57.935Z,101466.13
2023-02-04T07:49:26.937Z,101471.94
2023-02-04T07:51:55.580Z,101472.59
2023-02-04T07:54:24.106Z,101474.97
2023-02-04T07:56:52.503Z,101479.75
2023-02-04T07:59:21.347Z,101480.50
2023-02-04T08:01:51.590Z,101482.00
2023-02-04T08:04:20.746Z,101485.19
2023-02-04T08:06:49.200Z,101486.84
2023-02-04T08:09:17.940Z,101495.28
2023-02-04T08:11:47.022Z,101492.38
2023-02-04T08:14:15.885Z,101497.53
2023-02-04T08:16:44.443Z,101513.84
2023-02-04T08:19:21.074Z,101512.03
2023-02-04T08:21:50.561Z,101516.06
2023-02-04T08:24:19.409Z,101517.69
2023-02-04T08:26:49.756Z,101523.81
2023-02-04T08:29:20.643Z,101520.06
2023-02-04T08:31:50.140Z,101512.13
2023-02-04T08:34:20.420Z,101520.81
2023-02-04T08:36:48.962Z,101504.31
2023-02-04T08:39:17.697Z,101508.56
2023-02-04T08:41:46.958Z,101511.00
2023-02-04T08:44:15.789Z,101521.19
2023-02-04T08:46:44.651Z,101528.09
2023-02-04T08:49:13.691Z,101522.59
2023-02-04T08:51:44.115Z,101529.72
2023-02-04T08:54:12.982Z,101533.00
2023-02-04T08:56:42.324Z,101539.81
2023-02-04T08:59:10.924Z,101550.00
2023-02-04T09:01:39.733Z,101548.31
2023-02-04T09:04:08.651Z,101549.81
2023-02-04T09:06:37.068Z,101568.88
2023-02-04T09:09:07.029Z,101557.66
2023-02-04T09:11:35.907Z,101567.97
2023-02-04T09:14:04.453Z,101569.91
2023-02-04T09:16:33.329Z,101558.06
2023-02-04T09:19:02.268Z,101573.69
2023-02-04T09:21:31.882Z,101574.47
2023-02-04T09:24:00.301Z,101571.75
2023-02-04T09:26:32.318Z,101582.00
2023-02-04T09:29:00.895Z,101585.47
2023-02-04T09:31:29.442Z,101590.81
2023-02-04T09:33:58.224Z,101601.19
2023-02-04T09:36:31.097Z,101596.94
2023-02-04T09:38:59.641Z,101604.78
2023-02-04T09:41:28.617Z,101609.09
2023-02-04T09:43:59.050Z,101610.97
2023-02-04T09:46:30.353Z,101614.91
2023-02-04T09:49:00.673Z,101617.66
2023-02-04T09:51:32.903Z,101607.56
2023-02-04T09:54:09.850Z,101619.59
2023-02-04T09:56:39.532Z,101617.22
2023-02-04T09:59:13.859Z,101615.16
2023-02-04T10:01:42.268Z,101606.97
2023-02-04T10:04:14.111Z,101609.13
2023-02-04T10:06:44.496Z,101621.25
2023-02-04T10:09:14.335Z,101626.03
2023-02-04T10:11:44.648Z,101624.81
2023-02-04T10:14:18.509Z,101644.09
2023-02-04T10:16:54.525Z,101633.44
2023-02-04T10:19:25.500Z,101634.38
2023-02-04T10:21:54.929Z,101641.94
2023-02-04T10:24:26.601Z,101645.63
2023-02-04T10:26:55.479Z,101642.97
2023-02-04T10:29:26.052Z,101662.72
2023-02-04T10:31:55.688Z,101659.13
2023-02-04T10:34:25.938Z,101660.78
2023-02-04T10:36:57.993Z,101659.19
2023-02-04T10:39:27.825Z,101669.00
2023-02-04T10:41:57.796Z,101664.66
2023-02-04T10:44:30.850Z,101664.53
2023-02-04T10:47:03.617Z,101663.66
2023-02-04T10:49:33.284Z,101676.44
2023-02-04T10:52:04.636Z,101677.78
2023-02-04T10:54:38.054Z,101674.16
2023-02-04T10:57:16.800Z,101676.75
2023-02-04T10:59:47.970Z,101685.56
2023-02-04T11:02:36.260Z,101673.41
2023-02-04T11:05:06.762Z,101688.75
2023-02-04T11:07:36.286Z,101694.91
2023-02-04T11:10:05.563Z,101679.75
2023-02-04T11:12:42.779Z,101699.34
2023-02-04T11:15:44.827Z,101704.03
2023-02-04T11:18:26.740Z,101708.44
2023-02-04T11:20:58.368Z,101712.50
2023-02-04T11:23:35.932Z,101702.00
2023-02-04T11:26:08.636Z,101699.34
2023-02-04T11:28:47.035Z,101706.13
2023-02-04T11:31:30.499Z,101719.88
2023-02-04T11:34:12.556Z,101720.25
2023-02-04T11:37:13.225Z,101722.41
2023-02-04T11:39:43.909Z,101728.78
2023-02-04T11:42:20.092Z,101732.34
2023-02-04T11:44:53.816Z,101741.88
2023-02-04T11:47:26.336Z,101740.13
2023-02-04T11:49:57.753Z,101743.78
2023-02-04T11:52:26.217Z,101744.78
2023-02-04T11:54:56.440Z,101747.56
2023-02-04T11:57:24.982Z,101730.59
2023-02-04T11:59:55.566Z,101747.84
2023-02-04T12:02:27.721Z,101743.47
2023-02-04T12:04:58.801Z,101744.94
2023-02-04T12:07:29.582Z,101747.44
2023-02-04T12:09:59.088Z,101754.22
2023-02-04T12:12:30.568Z,101742.28
2023-02-04T12:15:03.672Z,101752.75
2023-02-04T12:17:33.558Z,101748.91
2023-02-04T12:20:02.153Z,101758.53
2023-02-04T12:22:30.829Z,101757.66
2023-02-04T12:24:59.813Z,101743.59
2023-02-04T12:27:28.563Z,101757.97
2023-02-04T12:29:57.409Z,101761.88
2023-02-04T12:32:26.146Z,101772.09
2023-02-04T12:34:56.123Z,101770.50
2023-02-04T12:37:24.611Z,101751.03
2023-02-04T12:39:53.139Z,101766.31
2023-02-04T12:42:21.723Z,101757.66
2023-02-04T12:44:50.171Z,101751.66
2023-02-04T12:47:21.101Z,101764.47
2023-02-04T12:49:50.259Z,101759.31
2023-02-04T12:52:20.428Z,101774.25
2023-02-04T12:54:48.915Z,101770.16
2023-02-04T12:57:20.218Z,101779.06
2023-02-04T12:59:49.435Z,101772.53
2023-02-04T13:02:18.093Z,101768.88
2023-02-04T13:04:46.905Z,101777.63
2023-02-04T13:07:15.892Z,101778.63
2023-02-04T13:09:47.102Z,101777.47
2023-02-04T13:12:17.756Z,101794.25
2023-02-04T13:14:47.160Z,101795.88
2023-02-04T13:17:15.778Z,101797.69
2023-02-04T13:19:44.209Z,101800.59
2023-02-04T13:22:12.658Z,101799.53
2023-02-04T13:24:41.089Z,101801.28
2023-02-04T13:27:11.070Z,101800.31
2023-02-04T13:29:40.234Z,101799.78
2023-02-04T13:32:08.795Z,101796.34
2023-02-04T13:34:37.273Z,101796.28
2023-02-04T13:37:05.900Z,101799.16
2023-02-04T13:39:34.587Z,101797.66
2023-02-04T13:42:04.469Z,101808.03
2023-02-04T13:44:34.611Z,101797.28
2023-02-04T13:47:03.116Z,101793.41
2023-02-04T13:49:32.354Z,101810.56
2023-02-04T13:52:00.701Z,101823.38
2023-02-04T13:54:29.068Z,101827.75
2023-02-04T13:56:57.432Z,101834.06
2023-02-04T13:59:29.056Z,101830.00
2023-02-04T14:01:58.915Z,101835.22
2023-02-04T14:04:28.049Z,101833.41
2023-02-04T14:06:56.736Z,101849.41
2023-02-04T14:09:25.627Z,101858.81
2023-02-04T14:11:54.019Z,101854.47
2023-02-04T14:14:22.747Z,101838.09
2023-02-04T14:16:51.300Z,101842.78
2023-02-04T14:19:21.571Z,101854.09
2023-02-04T14:21:50.459Z,101846.91
2023-02-04T14:24:18.900Z,101843.09
2023-02-04T14:26:48.138Z,101852.94
2023-02-04T14:29:16.692Z,101854.84
2023-02-04T14:31:45.131Z,101858.16
2023-02-04T14:34:13.646Z,101858.75
2023-02-04T14:36:43.631Z,101853.16
2023-02-04T14:39:12.101Z,101857.38
2023-02-04T14:41:40.753Z,101854.94
2023-02-04T14:44:09.252Z,101853.97
2023-02-04T14:46:37.869Z,101837.19
2023-02-04T14:49:06.326Z,101862.88
2023-02-04T14:51:34.858Z,101872.50
2023-02-04T14:54:05.036Z,101878.69
2023-02-04T14:56:33.460Z,101860.22
2023-02-04T14:59:01.894Z,101875.59
2023-02-04T15:01:31.151Z,101857.56
2023-02-04T15:03:59.706Z,101877.59
2023-02-04T15:06:28.172Z,101872.81
2023-02-04T15:08:57.483Z,101877.31
2023-02-04T15:11:27.664Z,101875.81
2023-02-04T15:13:56.085Z,101873.84
2023-02-04T15:16:24.657Z,101867.78
2023-02-04T15:18:53.380Z,101878.13
2023-02-04T15:21:21.774Z,101873.72
2023-02-04T15:23:50.197Z,101877.03
2023-02-04T15:26:18.563Z,101877.94
2023-02-04T15:28:48.381Z,101882.63
2023-02-04T15:31:16.888Z,101877.50
2023-02-04T15:33:45.555Z,101878.97
2023-02-04T15:36:13.942Z,101877.22
2023-02-04T15:38:42.658Z,101880.63
2023-02-04T15:41:11.179Z,101887.66
2023-02-04T15:43:39.786Z,101890.16
2023-02-04T15:46:10.603Z,101873.72
2023-02-04T15:48:39.107Z,101882.44
2023-02-04T15:51:07.844Z,101889.78
2023-02-04T15:53:37.929Z,101887.28
2023-02-04T15:56:07.673Z,101896.88
2023-02-04T15:58:36.083Z,101896.00
2023-02-04T16:01:04.769Z,101901.94
2023-02-04T16:03:35.152Z,101907.25
2023-02-04T16:06:03.958Z,101905.44
2023-02-04T16:08:32.353Z,101903.78
2023-02-04T16:11:00.907Z,101909.84
2023-02-04T16:13:29.297Z,101910.66
2023-02-04T16:15:58.234Z,101922.13
2023-02-04T16:18:26.751Z,101918.13
2023-02-04T16:20:56.685Z,101933.88
2023-02-04T16:23:25.842Z,101930.28
2023-02-04T16:25:54.436Z,101929.63
2023-02-04T16:28:23.181Z,101915.94
2023-02-04T16:30:51.912Z,101928.00
2023-02-04T16:33:20.623Z,101928.97
2023-02-04T16:36:02.552Z,101934.22
2023-02-04T16:38:31.709Z,101930.00
2023-02-04T16:41:00.655Z,101928.34
2023-02-04T16:43:29.604Z,101924.94
2023-02-04T16:45:58.051Z,101933.72
2023-02-04T16:48:27.042Z,101932.81
2023-02-04T16:50:55.779Z,101927.63
2023-02-04T16:53:25.752Z,101940.50
2023-02-04T16:55:55.887Z,101947.38
2023-02-04T16:58:25.813Z,101952.69
2023-02-04T17:00:54.359Z,101955.31
2023-02-04T17:03:23.068Z,101944.81
2023-02-04T17:05:51.746Z,101937.13
2023-02-04T17:08:21.310Z,101950.88
2023-02-04T17:11:08.420Z,101948.31
2023-02-04T17:13:36.839Z,101941.38
2023-02-04T17:16:05.599Z,101951.63
2023-02-04T17:18:34.748Z,101947.31
2023-02-04T17:21:03.523Z,101939.56
2023-02-04T17:23:32.259Z,101955.84
2023-02-04T17:26:02.364Z,101961.22
2023-02-04T17:28:31.279Z,101969.84
2023-02-04T17:30:59.763Z,101971.56
2023-02-04T17:33:28.723Z,101974.97
2023-02-04T17:35:58.011Z,101949.19
2023-02-04T17:38:28.010Z,101976.47
2023-02-04T17:40:56.707Z,101969.59
2023-02-04T17:43:26.849Z,101972.47
2023-02-04T17:45:55.294Z,101976.69
2023-02-04T17:48:24.061Z,101971.66
2023-02-04T17:50:53.680Z,101976.72
2023-02-04T17:53:22.382Z,101981.00
2023-02-04T17:55:50.822Z,101982.81
2023-02-04T17:58:27.277Z,101980.19
2023-02-04T18:00:57.968Z,101993.09
2023-02-04T18:03:29.077Z,101981.09
2023-02-04T18:05:58.519Z,101988.75
2023-02-04T18:08:31.856Z,101987.13
2023-02-04T18:11:00.356Z,101988.81
2023-02-04T18:13:34.339Z,101995.84
2023-02-04T18:16:10.514Z,101991.44
2023-02-04T18:18:40.771Z,102000.16
2023-02-04T18:21:20.095Z,102004.38
2023-02-04T18:23:50.104Z,102003.50
2023-02-04T18:26:20.704Z,102002.59
2023-02-04T18:28:54.769Z,102006.00
2023-02-04T18:31:33.916Z,102011.47
2023-02-04T18:34:03.928Z,102021.31
2023-02-04T18:36:34.766Z,102015.31
2023-02-04T18:39:15.308Z,102031.19
2023-02-04T18:41:46.168Z,102033.03
2023-02-04T18:44:30.518Z,102033.78
2023-02-04T18:46:58.986Z,102036.63
2023-02-04T18:49:29.205Z,102033.22
2023-02-04T18:51:59.868Z,102042.69
2023-02-04T18:54:32.356Z,102055.69
2023-02-04T18:57:19.417Z,102058.16
2023-02-04T18:59:49.650Z,102063.34
2023-02-04T19:02:36.778Z,102049.41
2023-02-04T19:05:20.846Z,102047.69
2023-02-04T19:07:51.468Z,102040.16
2023-02-04T19:10:30.256Z,102047.94
2023-02-04T19:13:12.364Z,102050.38
2023-02-04T19:15:42.574Z,102053.00
2023-02-04T19:18:24.116Z,102047.16
2023-02-04T19:20:52.954Z,102059.13
2023-02-04T19:23:23.335Z,102060.72
2023-02-04T19:25:53.963Z,102049.88
2023-02-04T19:28:31.002Z,102045.56
2023-02-04T19:31:04.628Z,102050.47
2023-02-04T19:33:36.880Z,102047.38
2023-02-04T19:36:40.640Z,102059.81
2023-02-04T19:39:23.807Z,102051.25
2023-02-04T19:41:53.535Z,102056.50
2023-02-04T19:44:43.992Z,102057.59
2023-02-04T19:47:28.651Z,102074.19
2023-02-04T19:50:22.161Z,102068.97
2023-02-04T19:52:52.484Z,102070.72
2023-02-04T19:55:30.981Z,102076.72
2023-02-04T19:58:02.602Z,102080.13
2023-02-04T20:00:44.982Z,102070.63
2023-02-04T20:03:41.005Z,102070.47
2023-02-04T20:06:33.025Z,102076.56
2023-02-04T20:09:03.795Z,102070.72
2023-02-04T20:11:38.519Z,102079.25
2023-02-04T20:14:36.093Z,102076.78
2023-02-04T20:17:14.332Z,102076.78
2023-02-04T20:19:44.211Z,102081.09
2023-02-04T20:22:38.354Z,102090.69
2023-02-04T20:25:37.796Z,102087.34
2023-02-04T20:28:21.425Z,102087.41
2023-02-04T20:30:50.896Z,102089.06
2023-02-04T20:33:31.415Z,102093.44
2023-02-04T20:36:42.691Z,102096.13
2023-02-04T20:39:40.162Z,102102.22
2023-02-04T20:42:28.888Z,102110.25
2023-02-04T20:45:03.603Z,102112.13
2023-02-04T20:47:36.914Z,102113.09
2023-02-04T20:50:38.775Z,102116.59
2023-02-04T20:53:23.053Z,102114.03
2023-02-04T20:55:54.386Z,102117.53
2023-02-04T20:58:24.772Z,102113.28
2023-02-04T21:00:56.203Z,102118.63
2023-02-04T21:03:27.797Z,102122.13
2023-02-04T21:05:58.503Z,102115.47
2023-02-04T21:08:41.879Z,102113.91
2023-02-04T21:11:10.574Z,102120.72
2023-02-04T21:13:40.910Z,102119.84
2023-02-04T21:16:10.007Z,102115.47
2023-02-04T21:18:39.271Z,102127.66
2023-02-04T21:21:09.196Z,102135.59
2023-02-04T21:23:39.138Z,102123.72
2023-02-04T21:26:08.104Z,102132.41
2023-02-04T21:28:36.927Z,102125.50
2023-02-04T21:31:05.988Z,102118.72
2023-02-04T21:33:34.606Z,102116.22
2023-02-04T21:36:03.058Z,102123.97
2023-02-04T21:38:31.596Z,102122.06
2023-02-04T21:41:01.446Z,102124.78
2023-02-04T21:43:29.980Z,102135.97
2023-02-04T21:45:58.571Z,102133.34
2023-02-04T21:48:27.200Z,102137.78
2023-02-04T21:50:55.585Z,102143.00
2023-02-04T21:53:24.531Z,102142.16
2023-02-04T21:55:52.994Z,102148.13
2023-02-04T21:58:22.962Z,102140.28
2023-02-04T22:00:51.735Z,102144.66
2023-02-04T22:03:20.236Z,102150.91
2023-02-04T22:05:48.731Z,102160.50
2023-02-04T22:08:17.257Z,102158.78
2023-02-04T22:10:45.818Z,102163.13
2023-02-04T22:13:14.402Z,102145.88
2023-02-04T22:15:44.339Z,102147.59
2023-02-04T22:18:12.881Z,102158.66
2023-02-04T22:20:41.390Z,102155.28
2023-02-04T22:23:09.946Z,102177.63
2023-02-04T22:25:38.467Z,102171.59
2023-02-04T22:28:07.224Z,102169.75
2023-02-04T22:30:35.742Z,102167.28
2023-02-04T22:33:05.725Z,102158.84
2023-02-04T22:35:36.950Z,102154.47
2023-02-04T22:38:05.407Z,102171.59
2023-02-04T22:40:33.912Z,102178.50
2023-02-04T22:43:02.421Z,102168.09
2023-02-04T22:45:31.032Z,102168.94
2023-02-04T22:47:59.646Z,102166.28
2023-02-04T22:50:29.529Z,102149.13
2023-02-04T22:52:57.962Z,102173.25
2023-02-04T22:55:26.811Z,102168.09
2023-02-04T22:57:55.334Z,102167.91
2023-02-04T23:00:24.032Z,102174.78
2023-02-04T23:02:52.604Z,102175.69
2023-02-04T23:05:21.133Z,102162.78
2023-02-04T23:07:51.164Z,102153.41
2023-02-04T23:10:19.908Z,102167.16
2023-02-04T23:12:48.405Z,102166.47
2023-02-04T23:15:17.294Z,102156.88
2023-02-04T23:17:45.840Z,102156.94
2023-02-04T23:20:14.403Z,102164.69
2023-02-04T23:22:42.965Z,102168.16
2023-02-04T23:25:13.020Z,102161.31
2023-02-04T23:27:41.689Z,102169.22
2023-02-04T23:30:11.191Z,102161.41
2023-02-04T23:32:39.700Z,102160.66
2023-02-04T23:35:08.770Z,102154.63
2023-02-04T23:37:37.359Z,102160.66
2023-02-04T23:40:06.661Z,102164.25
2023-02-04T23:42:36.672Z,102164.31
2023-02-04T23:45:05.783Z,102172.88
2023-02-04T23:47:34.376Z,102178.91
2023-02-04T23:50:02.875Z,102161.72
2023-02-04T23:52:31.457Z,102171.22
2023-02-04T23:54:59.930Z,102169.63
2023-02-04T23:57:28.487Z,102151.59
2023-02-04T23:59:58.373Z,102158.50
